Terminal Aerodrome Forecast
Issued by NWS

Home | Current Version | Previous Version | Text Only | Print | Product List | Glossary On
Versions: 1 2 3 4 5 6 7 8 9 10 11 12
843
FTUS45 KTFX 110520
TAFLWT
TAF
KLWT 110520Z 1106/1206 26006KT P6SM SCT090 BKN150
     FM111800 29013KT P6SM SCT150
     FM112100 31016KT P6SM SCT040 BKN100
     FM120400 32011KT P6SM SCT025 BKN040=

USA.gov is the U.S. government's official web portal to all federal, state and local government web resources and services.